sensor_id;sensor_type;location;lat;lon;timestamp;temperature;humidity
18361;SHT31;9308;48.550;9.108;2022-08-19T00:02:23;21.75;67.75
18361;SHT31;9308;48.550;9.108;2022-08-19T00:04:49;21.65;68.74
18361;SHT31;9308;48.550;9.108;2022-08-19T00:07:18;21.51;70.90
18361;SHT31;9308;48.550;9.108;2022-08-19T00:09:44;21.51;71.05
18361;SHT31;9308;48.550;9.108;2022-08-19T00:12:09;21.46;71.35
18361;SHT31;9308;48.550;9.108;2022-08-19T00:14:36;21.40;71.67
18361;SHT31;9308;48.550;9.108;2022-08-19T00:17:03;21.44;72.06
18361;SHT31;9308;48.550;9.108;2022-08-19T00:19:29;21.44;72.47
18361;SHT31;9308;48.550;9.108;2022-08-19T00:21:55;21.41;72.03
18361;SHT31;9308;48.550;9.108;2022-08-19T00:24:21;21.68;70.79
18361;SHT31;9308;48.550;9.108;2022-08-19T00:26:47;21.64;70.70
18361;SHT31;9308;48.550;9.108;2022-08-19T00:29:15;21.46;71.27
18361;SHT31;9308;48.550;9.108;2022-08-19T00:31:42;21.36;71.56
18361;SHT31;9308;48.550;9.108;2022-08-19T00:34:08;21.27;72.17
18361;SHT31;9308;48.550;9.108;2022-08-19T00:36:34;21.10;72.84
18361;SHT31;9308;48.550;9.108;2022-08-19T00:39:00;21.32;72.91
18361;SHT31;9308;48.550;9.108;2022-08-19T00:41:25;21.10;73.38
18361;SHT31;9308;48.550;9.108;2022-08-19T00:46:29;20.89;74.15
18361;SHT31;9308;48.550;9.108;2022-08-19T00:48:55;20.88;74.85
18361;SHT31;9308;48.550;9.108;2022-08-19T00:51:24;20.88;74.77
18361;SHT31;9308;48.550;9.108;2022-08-19T00:53:53;20.55;76.19
18361;SHT31;9308;48.550;9.108;2022-08-19T00:56:19;20.88;74.42
18361;SHT31;9308;48.550;9.108;2022-08-19T00:58:44;20.86;75.33
18361;SHT31;9308;48.550;9.108;2022-08-19T01:01:10;20.84;76.02
18361;SHT31;9308;48.550;9.108;2022-08-19T01:03:36;20.78;76.25
18361;SHT31;9308;48.550;9.108;2022-08-19T01:06:01;20.92;75.54
18361;SHT31;9308;48.550;9.108;2022-08-19T01:08:27;20.82;75.90
18361;SHT31;9308;48.550;9.108;2022-08-19T01:10:55;20.71;77.02
18361;SHT31;9308;48.550;9.108;2022-08-19T01:13:23;20.65;77.30
18361;SHT31;9308;48.550;9.108;2022-08-19T01:15:53;20.59;77.70
18361;SHT31;9308;48.550;9.108;2022-08-19T01:18:20;20.64;77.67
18361;SHT31;9308;48.550;9.108;2022-08-19T01:20:46;20.84;77.05
18361;SHT31;9308;48.550;9.108;2022-08-19T01:23:14;20.82;77.76
18361;SHT31;9308;48.550;9.108;2022-08-19T01:25:49;20.81;77.35
18361;SHT31;9308;48.550;9.108;2022-08-19T01:28:26;20.84;77.61
18361;SHT31;9308;48.550;9.108;2022-08-19T01:30:52;20.84;77.77
18361;SHT31;9308;48.550;9.108;2022-08-19T01:33:19;20.75;78.20
18361;SHT31;9308;48.550;9.108;2022-08-19T01:35:46;20.75;78.40
18361;SHT31;9308;48.550;9.108;2022-08-19T01:38:26;20.62;78.93
18361;SHT31;9308;48.550;9.108;2022-08-19T01:40:52;20.65;79.33
18361;SHT31;9308;48.550;9.108;2022-08-19T01:43:18;20.61;78.42
18361;SHT31;9308;48.550;9.108;2022-08-19T01:45:44;20.61;78.91
18361;SHT31;9308;48.550;9.108;2022-08-19T01:48:12;20.54;79.72
18361;SHT31;9308;48.550;9.108;2022-08-19T01:50:38;20.61;78.71
18361;SHT31;9308;48.550;9.108;2022-08-19T01:53:06;20.54;79.31
18361;SHT31;9308;48.550;9.108;2022-08-19T01:55:33;20.44;78.99
18361;SHT31;9308;48.550;9.108;2022-08-19T01:58:02;20.58;78.34
18361;SHT31;9308;48.550;9.108;2022-08-19T02:00:30;20.43;78.82
18361;SHT31;9308;48.550;9.108;2022-08-19T02:02:56;20.47;78.77
18361;SHT31;9308;48.550;9.108;2022-08-19T02:05:22;20.24;79.53
18361;SHT31;9308;48.550;9.108;2022-08-19T02:07:48;20.29;79.21
18361;SHT31;9308;48.550;9.108;2022-08-19T02:10:18;20.36;79.30
18361;SHT31;9308;48.550;9.108;2022-08-19T02:12:44;20.36;78.90
18361;SHT31;9308;48.550;9.108;2022-08-19T02:15:10;20.34;78.85
18361;SHT31;9308;48.550;9.108;2022-08-19T02:17:36;20.19;78.84
18361;SHT31;9308;48.550;9.108;2022-08-19T02:20:02;20.08;79.89
18361;SHT31;9308;48.550;9.108;2022-08-19T02:22:28;20.05;79.85
18361;SHT31;9308;48.550;9.108;2022-08-19T02:24:54;20.09;79.32
18361;SHT31;9308;48.550;9.108;2022-08-19T02:27:21;20.17;79.51
18361;SHT31;9308;48.550;9.108;2022-08-19T02:29:48;20.24;78.86
18361;SHT31;9308;48.550;9.108;2022-08-19T02:32:14;20.14;79.43
18361;SHT31;9308;48.550;9.108;2022-08-19T02:34:40;20.16;79.66
18361;SHT31;9308;48.550;9.108;2022-08-19T02:37:06;20.21;79.34
18361;SHT31;9308;48.550;9.108;2022-08-19T02:39:51;20.36;78.75
18361;SHT31;9308;48.550;9.108;2022-08-19T02:42:17;20.21;79.77
18361;SHT31;9308;48.550;9.108;2022-08-19T02:44:42;20.16;79.88
18361;SHT31;9308;48.550;9.108;2022-08-19T02:47:09;20.10;79.43
18361;SHT31;9308;48.550;9.108;2022-08-19T02:49:35;20.13;79.10
18361;SHT31;9308;48.550;9.108;2022-08-19T02:52:01;20.08;79.66
18361;SHT31;9308;48.550;9.108;2022-08-19T02:54:26;20.06;79.51
18361;SHT31;9308;48.550;9.108;2022-08-19T02:56:53;20.05;79.84
18361;SHT31;9308;48.550;9.108;2022-08-19T02:59:18;20.10;79.47
18361;SHT31;9308;48.550;9.108;2022-08-19T03:01:45;20.21;78.84
18361;SHT31;9308;48.550;9.108;2022-08-19T03:04:14;20.06;78.90
18361;SHT31;9308;48.550;9.108;2022-08-19T03:06:43;19.79;79.67
18361;SHT31;9308;48.550;9.108;2022-08-19T03:09:10;19.96;79.78
18361;SHT31;9308;48.550;9.108;2022-08-19T03:11:36;19.92;79.94
18361;SHT31;9308;48.550;9.108;2022-08-19T03:14:03;19.83;80.09
18361;SHT31;9308;48.550;9.108;2022-08-19T03:16:31;19.98;79.65
18361;SHT31;9308;48.550;9.108;2022-08-19T03:18:57;19.92;79.76
18361;SHT31;9308;48.550;9.108;2022-08-19T03:21:31;19.90;79.51
18361;SHT31;9308;48.550;9.108;2022-08-19T03:23:59;19.96;78.99
18361;SHT31;9308;48.550;9.108;2022-08-19T03:26:25;19.69;79.97
18361;SHT31;9308;48.550;9.108;2022-08-19T03:28:51;19.83;79.00
18361;SHT31;9308;48.550;9.108;2022-08-19T03:31:21;19.82;78.78
18361;SHT31;9308;48.550;9.108;2022-08-19T03:33:48;19.78;79.54
18361;SHT31;9308;48.550;9.108;2022-08-19T03:36:17;19.87;78.88
18361;SHT31;9308;48.550;9.108;2022-08-19T03:38:49;19.90;78.69
18361;SHT31;9308;48.550;9.108;2022-08-19T03:41:19;19.90;78.44
18361;SHT31;9308;48.550;9.108;2022-08-19T03:43:45;19.85;78.33
18361;SHT31;9308;48.550;9.108;2022-08-19T03:46:21;19.92;78.33
18361;SHT31;9308;48.550;9.108;2022-08-19T03:48:49;20.03;77.82
18361;SHT31;9308;48.550;9.108;2022-08-19T03:51:31;20.08;77.65
18361;SHT31;9308;48.550;9.108;2022-08-19T03:53:59;20.02;77.80
18361;SHT31;9308;48.550;9.108;2022-08-19T03:56:26;19.90;78.82
18361;SHT31;9308;48.550;9.108;2022-08-19T03:58:53;19.83;78.84
18361;SHT31;9308;48.550;9.108;2022-08-19T04:01:21;19.71;79.34
18361;SHT31;9308;48.550;9.108;2022-08-19T04:03:47;19.71;79.28
18361;SHT31;9308;48.550;9.108;2022-08-19T04:06:18;19.66;79.43
18361;SHT31;9308;48.550;9.108;2022-08-19T04:08:45;19.58;79.94
18361;SHT31;9308;48.550;9.108;2022-08-19T04:11:16;19.83;78.45
18361;SHT31;9308;48.550;9.108;2022-08-19T04:13:42;19.86;78.05
18361;SHT31;9308;48.550;9.108;2022-08-19T04:16:10;20.08;77.36
18361;SHT31;9308;48.550;9.108;2022-08-19T04:18:38;19.95;77.79
18361;SHT31;9308;48.550;9.108;2022-08-19T04:21:04;19.82;78.41
18361;SHT31;9308;48.550;9.108;2022-08-19T04:23:30;19.69;79.22
18361;SHT31;9308;48.550;9.108;2022-08-19T04:25:57;19.64;79.17
18361;SHT31;9308;48.550;9.108;2022-08-19T04:28:23;19.55;79.80
18361;SHT31;9308;48.550;9.108;2022-08-19T04:30:50;19.54;79.84
18361;SHT31;9308;48.550;9.108;2022-08-19T04:33:18;19.65;78.91
18361;SHT31;9308;48.550;9.108;2022-08-19T04:35:46;19.81;78.36
18361;SHT31;9308;48.550;9.108;2022-08-19T04:38:15;19.74;78.51
18361;SHT31;9308;48.550;9.108;2022-08-19T04:40:44;19.87;77.96
18361;SHT31;9308;48.550;9.108;2022-08-19T04:43:29;19.95;77.59
18361;SHT31;9308;48.550;9.108;2022-08-19T04:45:54;19.99;77.05
18361;SHT31;9308;48.550;9.108;2022-08-19T04:48:20;19.85;77.79
18361;SHT31;9308;48.550;9.108;2022-08-19T04:50:54;19.79;77.39
18361;SHT31;9308;48.550;9.108;2022-08-19T04:53:30;19.68;77.85
18361;SHT31;9308;48.550;9.108;2022-08-19T04:55:58;19.74;77.85
18361;SHT31;9308;48.550;9.108;2022-08-19T04:58:25;19.72;78.07
18361;SHT31;9308;48.550;9.108;2022-08-19T05:00:52;19.62;78.92
18361;SHT31;9308;48.550;9.108;2022-08-19T05:03:18;19.75;78.18
18361;SHT31;9308;48.550;9.108;2022-08-19T05:05:44;19.85;77.61
18361;SHT31;9308;48.550;9.108;2022-08-19T05:08:12;19.86;78.61
18361;SHT31;9308;48.550;9.108;2022-08-19T05:10:39;19.83;77.64
18361;SHT31;9308;48.550;9.108;2022-08-19T05:13:05;20.02;77.76
18361;SHT31;9308;48.550;9.108;2022-08-19T05:15:30;19.69;77.72
18361;SHT31;9308;48.550;9.108;2022-08-19T05:17:56;19.68;78.41
18361;SHT31;9308;48.550;9.108;2022-08-19T05:20:40;19.79;77.81
18361;SHT31;9308;48.550;9.108;2022-08-19T05:23:24;19.78;79.40
18361;SHT31;9308;48.550;9.108;2022-08-19T05:25:51;19.85;78.88
18361;SHT31;9308;48.550;9.108;2022-08-19T05:28:17;19.75;79.41
18361;SHT31;9308;48.550;9.108;2022-08-19T05:30:44;19.92;79.03
18361;SHT31;9308;48.550;9.108;2022-08-19T05:33:11;19.82;79.41
18361;SHT31;9308;48.550;9.108;2022-08-19T05:35:38;19.86;79.71
18361;SHT31;9308;48.550;9.108;2022-08-19T05:38:05;19.90;79.32
18361;SHT31;9308;48.550;9.108;2022-08-19T05:40:37;19.92;79.38
18361;SHT31;9308;48.550;9.108;2022-08-19T05:43:05;19.93;79.03
18361;SHT31;9308;48.550;9.108;2022-08-19T05:45:31;20.01;78.00
18361;SHT31;9308;48.550;9.108;2022-08-19T05:47:57;20.03;79.14
18361;SHT31;9308;48.550;9.108;2022-08-19T05:50:24;20.12;78.96
18361;SHT31;9308;48.550;9.108;2022-08-19T05:52:52;19.95;78.61
18361;SHT31;9308;48.550;9.108;2022-08-19T05:55:17;20.19;78.71
18361;SHT31;9308;48.550;9.108;2022-08-19T05:57:45;20.30;77.96
18361;SHT31;9308;48.550;9.108;2022-08-19T06:00:11;20.14;78.48
18361;SHT31;9308;48.550;9.108;2022-08-19T06:02:38;20.05;78.30
18361;SHT31;9308;48.550;9.108;2022-08-19T06:05:05;20.13;77.65
18361;SHT31;9308;48.550;9.108;2022-08-19T06:07:32;20.13;78.00
18361;SHT31;9308;48.550;9.108;2022-08-19T06:09:58;20.10;78.52
18361;SHT31;9308;48.550;9.108;2022-08-19T06:12:23;20.19;77.38
18361;SHT31;9308;48.550;9.108;2022-08-19T06:14:54;20.26;77.39
18361;SHT31;9308;48.550;9.108;2022-08-19T06:17:21;20.40;76.60
18361;SHT31;9308;48.550;9.108;2022-08-19T06:19:50;20.24;77.14
18361;SHT31;9308;48.550;9.108;2022-08-19T06:22:16;20.29;76.24
18361;SHT31;9308;48.550;9.108;2022-08-19T06:24:41;20.19;77.73
18361;SHT31;9308;48.550;9.108;2022-08-19T06:27:07;20.33;76.32
18361;SHT31;9308;48.550;9.108;2022-08-19T06:29:32;20.37;76.83
18361;SHT31;9308;48.550;9.108;2022-08-19T06:32:00;20.50;76.18
18361;SHT31;9308;48.550;9.108;2022-08-19T06:34:28;20.48;77.69
18361;SHT31;9308;48.550;9.108;2022-08-19T06:36:56;20.50;76.93
18361;SHT31;9308;48.550;9.108;2022-08-19T06:39:28;20.43;76.63
18361;SHT31;9308;48.550;9.108;2022-08-19T06:41:56;20.51;76.50
18361;SHT31;9308;48.550;9.108;2022-08-19T06:44:24;20.41;76.49
18361;SHT31;9308;48.550;9.108;2022-08-19T06:46:52;20.58;76.65
18361;SHT31;9308;48.550;9.108;2022-08-19T06:49:17;20.64;76.65
18361;SHT31;9308;48.550;9.108;2022-08-19T06:51:45;20.64;76.87
18361;SHT31;9308;48.550;9.108;2022-08-19T06:54:14;20.74;76.82
18361;SHT31;9308;48.550;9.108;2022-08-19T06:56:41;20.57;77.31
18361;SHT31;9308;48.550;9.108;2022-08-19T06:59:10;20.68;77.05
18361;SHT31;9308;48.550;9.108;2022-08-19T07:01:45;20.57;77.19
18361;SHT31;9308;48.550;9.108;2022-08-19T07:04:16;20.52;78.33
18361;SHT31;9308;48.550;9.108;2022-08-19T07:06:43;20.77;77.38
18361;SHT31;9308;48.550;9.108;2022-08-19T07:09:10;20.67;77.19
18361;SHT31;9308;48.550;9.108;2022-08-19T07:11:36;20.58;78.16
18361;SHT31;9308;48.550;9.108;2022-08-19T07:14:02;20.81;77.33
18361;SHT31;9308;48.550;9.108;2022-08-19T07:16:28;20.61;78.04
18361;SHT31;9308;48.550;9.108;2022-08-19T07:18:54;20.68;78.04
18361;SHT31;9308;48.550;9.108;2022-08-19T07:21:27;20.79;76.81
18361;SHT31;9308;48.550;9.108;2022-08-19T07:23:56;20.62;77.45
18361;SHT31;9308;48.550;9.108;2022-08-19T07:26:28;20.55;78.17
18361;SHT31;9308;48.550;9.108;2022-08-19T07:28:54;20.33;77.76
18361;SHT31;9308;48.550;9.108;2022-08-19T07:31:22;20.58;76.84
18361;SHT31;9308;48.550;9.108;2022-08-19T07:33:49;20.50;77.00
18361;SHT31;9308;48.550;9.108;2022-08-19T07:36:17;20.39;78.58
18361;SHT31;9308;48.550;9.108;2022-08-19T07:38:45;20.52;77.72
18361;SHT31;9308;48.550;9.108;2022-08-19T07:41:15;20.55;77.54
18361;SHT31;9308;48.550;9.108;2022-08-19T07:43:43;20.59;77.11
18361;SHT31;9308;48.550;9.108;2022-08-19T07:46:09;20.68;77.56
18361;SHT31;9308;48.550;9.108;2022-08-19T07:48:37;20.58;77.50
18361;SHT31;9308;48.550;9.108;2022-08-19T07:51:04;20.57;77.77
18361;SHT31;9308;48.550;9.108;2022-08-19T07:53:31;20.67;77.73
18361;SHT31;9308;48.550;9.108;2022-08-19T07:55:58;20.51;77.94
18361;SHT31;9308;48.550;9.108;2022-08-19T07:58:36;20.52;77.22
18361;SHT31;9308;48.550;9.108;2022-08-19T08:01:06;20.43;77.47
18361;SHT31;9308;48.550;9.108;2022-08-19T08:03:31;20.61;77.08
18361;SHT31;9308;48.550;9.108;2022-08-19T08:06:16;20.72;76.25
18361;SHT31;9308;48.550;9.108;2022-08-19T08:09:01;20.54;76.60
18361;SHT31;9308;48.550;9.108;2022-08-19T08:11:41;20.52;76.88
18361;SHT31;9308;48.550;9.108;2022-08-19T08:14:08;20.65;76.71
18361;SHT31;9308;48.550;9.108;2022-08-19T08:16:38;20.58;76.84
18361;SHT31;9308;48.550;9.108;2022-08-19T08:19:05;20.72;77.16
18361;SHT31;9308;48.550;9.108;2022-08-19T08:21:32;20.89;76.69
18361;SHT31;9308;48.550;9.108;2022-08-19T08:23:57;20.96;76.39
18361;SHT31;9308;48.550;9.108;2022-08-19T08:26:23;20.85;76.90
18361;SHT31;9308;48.550;9.108;2022-08-19T08:28:48;20.98;76.16
18361;SHT31;9308;48.550;9.108;2022-08-19T08:31:14;20.99;77.27
18361;SHT31;9308;48.550;9.108;2022-08-19T08:33:40;21.00;77.26
18361;SHT31;9308;48.550;9.108;2022-08-19T08:36:08;20.86;77.38
18361;SHT31;9308;48.550;9.108;2022-08-19T08:38:34;20.78;78.43
18361;SHT31;9308;48.550;9.108;2022-08-19T08:43:46;20.72;78.57
18361;SHT31;9308;48.550;9.108;2022-08-19T08:46:17;20.84;78.56
18361;SHT31;9308;48.550;9.108;2022-08-19T08:51:40;20.75;78.97
18361;SHT31;9308;48.550;9.108;2022-08-19T08:54:12;20.81;79.04
18361;SHT31;9308;48.550;9.108;2022-08-19T08:56:39;20.72;79.01
18361;SHT31;9308;48.550;9.108;2022-08-19T08:59:34;20.84;78.50
18361;SHT31;9308;48.550;9.108;2022-08-19T09:02:01;20.72;78.53
18361;SHT31;9308;48.550;9.108;2022-08-19T09:04:27;20.69;79.29
18361;SHT31;9308;48.550;9.108;2022-08-19T09:07:14;20.75;78.87
18361;SHT31;9308;48.550;9.108;2022-08-19T09:09:46;20.51;79.88
18361;SHT31;9308;48.550;9.108;2022-08-19T09:12:47;20.55;80.18
18361;SHT31;9308;48.550;9.108;2022-08-19T09:15:18;20.74;79.95
18361;SHT31;9308;48.550;9.108;2022-08-19T09:17:47;20.50;80.33
18361;SHT31;9308;48.550;9.108;2022-08-19T09:20:20;20.55;80.22
18361;SHT31;9308;48.550;9.108;2022-08-19T09:22:47;20.68;79.70
18361;SHT31;9308;48.550;9.108;2022-08-19T09:25:17;20.69;79.74
18361;SHT31;9308;48.550;9.108;2022-08-19T09:27:43;20.94;78.54
18361;SHT31;9308;48.550;9.108;2022-08-19T09:30:14;20.81;79.39
18361;SHT31;9308;48.550;9.108;2022-08-19T09:32:40;20.69;79.85
18361;SHT31;9308;48.550;9.108;2022-08-19T09:35:08;20.74;79.79
18361;SHT31;9308;48.550;9.108;2022-08-19T09:37:33;20.59;80.46
18361;SHT31;9308;48.550;9.108;2022-08-19T09:39:58;20.74;80.10
18361;SHT31;9308;48.550;9.108;2022-08-19T09:42:24;20.71;79.80
18361;SHT31;9308;48.550;9.108;2022-08-19T09:44:49;20.72;80.08
18361;SHT31;9308;48.550;9.108;2022-08-19T09:47:15;20.61;81.12
18361;SHT31;9308;48.550;9.108;2022-08-19T09:49:40;20.74;80.42
18361;SHT31;9308;48.550;9.108;2022-08-19T09:52:09;20.78;80.30
18361;SHT31;9308;48.550;9.108;2022-08-19T09:54:36;20.75;80.48
18361;SHT31;9308;48.550;9.108;2022-08-19T09:57:02;20.79;80.63
18361;SHT31;9308;48.550;9.108;2022-08-19T09:59:28;20.92;80.44
18361;SHT31;9308;48.550;9.108;2022-08-19T10:01:54;21.06;79.64
18361;SHT31;9308;48.550;9.108;2022-08-19T10:04:21;20.99;79.96
18361;SHT31;9308;48.550;9.108;2022-08-19T10:06:48;21.16;79.30
18361;SHT31;9308;48.550;9.108;2022-08-19T10:09:15;21.13;79.42
18361;SHT31;9308;48.550;9.108;2022-08-19T10:11:43;21.16;79.11
18361;SHT31;9308;48.550;9.108;2022-08-19T10:14:11;21.03;79.20
18361;SHT31;9308;48.550;9.108;2022-08-19T10:16:37;21.12;78.95
18361;SHT31;9308;48.550;9.108;2022-08-19T10:19:04;21.02;78.69
18361;SHT31;9308;48.550;9.108;2022-08-19T10:21:31;21.13;78.44
18361;SHT31;9308;48.550;9.108;2022-08-19T10:23:59;20.96;79.76
18361;SHT31;9308;48.550;9.108;2022-08-19T10:26:27;20.75;80.28
18361;SHT31;9308;48.550;9.108;2022-08-19T10:28:53;20.71;80.96
18361;SHT31;9308;48.550;9.108;2022-08-19T10:31:28;21.07;78.95
18361;SHT31;9308;48.550;9.108;2022-08-19T10:33:54;20.92;80.18
18361;SHT31;9308;48.550;9.108;2022-08-19T10:36:28;21.09;79.47
18361;SHT31;9308;48.550;9.108;2022-08-19T10:38:56;21.16;79.45
18361;SHT31;9308;48.550;9.108;2022-08-19T10:41:35;21.07;80.10
18361;SHT31;9308;48.550;9.108;2022-08-19T10:44:08;21.16;79.71
18361;SHT31;9308;48.550;9.108;2022-08-19T10:46:37;21.27;79.39
18361;SHT31;9308;48.550;9.108;2022-08-19T10:49:08;21.19;79.76
18361;SHT31;9308;48.550;9.108;2022-08-19T10:51:34;21.26;79.91
18361;SHT31;9308;48.550;9.108;2022-08-19T10:54:23;21.39;79.70
18361;SHT31;9308;48.550;9.108;2022-08-19T10:57:08;21.58;79.34
18361;SHT31;9308;48.550;9.108;2022-08-19T10:59:34;21.53;79.59
18361;SHT31;9308;48.550;9.108;2022-08-19T11:02:02;21.51;79.50
18361;SHT31;9308;48.550;9.108;2022-08-19T11:04:28;21.49;77.58
18361;SHT31;9308;48.550;9.108;2022-08-19T11:06:54;21.54;78.19
18361;SHT31;9308;48.550;9.108;2022-08-19T11:09:24;21.40;79.07
18361;SHT31;9308;48.550;9.108;2022-08-19T11:11:50;21.53;77.77
18361;SHT31;9308;48.550;9.108;2022-08-19T11:14:18;21.68;78.49
18361;SHT31;9308;48.550;9.108;2022-08-19T11:16:45;21.75;78.94
18361;SHT31;9308;48.550;9.108;2022-08-19T11:19:11;21.75;79.31
18361;SHT31;9308;48.550;9.108;2022-08-19T11:21:43;21.72;76.80
18361;SHT31;9308;48.550;9.108;2022-08-19T11:24:15;21.68;78.58
18361;SHT31;9308;48.550;9.108;2022-08-19T11:26:42;21.71;79.47
18361;SHT31;9308;48.550;9.108;2022-08-19T11:29:10;21.85;79.13
18361;SHT31;9308;48.550;9.108;2022-08-19T11:31:37;21.81;79.83
18361;SHT31;9308;48.550;9.108;2022-08-19T11:34:06;21.89;79.44
18361;SHT31;9308;48.550;9.108;2022-08-19T11:36:33;21.75;79.16
18361;SHT31;9308;48.550;9.108;2022-08-19T11:38:59;21.83;79.55
18361;SHT31;9308;48.550;9.108;2022-08-19T11:41:25;21.97;78.87
18361;SHT31;9308;48.550;9.108;2022-08-19T11:43:52;21.98;78.82
18361;SHT31;9308;48.550;9.108;2022-08-19T11:46:19;21.91;78.59
18361;SHT31;9308;48.550;9.108;2022-08-19T11:48:45;21.75;79.79
18361;SHT31;9308;48.550;9.108;2022-08-19T11:51:14;21.89;79.32
18361;SHT31;9308;48.550;9.108;2022-08-19T11:53:40;21.54;80.44
18361;SHT31;9308;48.550;9.108;2022-08-19T11:56:08;21.82;79.39
18361;SHT31;9308;48.550;9.108;2022-08-19T11:58:35;21.79;79.85
18361;SHT31;9308;48.550;9.108;2022-08-19T12:01:00;21.79;79.72
18361;SHT31;9308;48.550;9.108;2022-08-19T12:03:26;21.82;79.49
18361;SHT31;9308;48.550;9.108;2022-08-19T12:05:52;21.70;79.53
18361;SHT31;9308;48.550;9.108;2022-08-19T12:08:18;21.87;79.10
18361;SHT31;9308;48.550;9.108;2022-08-19T12:10:44;21.91;79.02
18361;SHT31;9308;48.550;9.108;2022-08-19T12:13:11;21.88;79.06
18361;SHT31;9308;48.550;9.108;2022-08-19T12:15:39;21.83;79.22
18361;SHT31;9308;48.550;9.108;2022-08-19T12:18:08;21.82;79.29
18361;SHT31;9308;48.550;9.108;2022-08-19T12:20:38;21.61;79.81
18361;SHT31;9308;48.550;9.108;2022-08-19T12:23:06;21.44;79.80
18361;SHT31;9308;48.550;9.108;2022-08-19T12:25:32;21.30;80.80
18361;SHT31;9308;48.550;9.108;2022-08-19T12:27:59;21.43;79.49
18361;SHT31;9308;48.550;9.108;2022-08-19T12:30:25;21.50;79.62
18361;SHT31;9308;48.550;9.108;2022-08-19T12:32:51;21.33;80.15
18361;SHT31;9308;48.550;9.108;2022-08-19T12:35:17;21.58;79.28
18361;SHT31;9308;48.550;9.108;2022-08-19T12:37:46;21.55;79.42
18361;SHT31;9308;48.550;9.108;2022-08-19T12:40:13;21.50;79.70
18361;SHT31;9308;48.550;9.108;2022-08-19T12:42:40;21.49;80.07
18361;SHT31;9308;48.550;9.108;2022-08-19T12:45:09;21.68;79.10
18361;SHT31;9308;48.550;9.108;2022-08-19T12:47:35;21.55;79.71
18361;SHT31;9308;48.550;9.108;2022-08-19T12:50:00;21.62;79.36
18361;SHT31;9308;48.550;9.108;2022-08-19T12:52:26;21.77;79.48
18361;SHT31;9308;48.550;9.108;2022-08-19T12:54:54;21.87;79.42
18361;SHT31;9308;48.550;9.108;2022-08-19T12:57:19;21.70;79.96
18361;SHT31;9308;48.550;9.108;2022-08-19T12:59:45;21.75;79.51
18361;SHT31;9308;48.550;9.108;2022-08-19T13:02:10;21.82;79.40
18361;SHT31;9308;48.550;9.108;2022-08-19T13:04:36;21.87;78.74
18361;SHT31;9308;48.550;9.108;2022-08-19T13:07:06;21.70;79.35
18361;SHT31;9308;48.550;9.108;2022-08-19T13:09:31;21.64;80.02
18361;SHT31;9308;48.550;9.108;2022-08-19T13:11:57;21.62;79.90
18361;SHT31;9308;48.550;9.108;2022-08-19T13:14:22;21.57;80.08
18361;SHT31;9308;48.550;9.108;2022-08-19T13:16:48;21.57;79.83
18361;SHT31;9308;48.550;9.108;2022-08-19T13:19:13;21.58;79.71
18361;SHT31;9308;48.550;9.108;2022-08-19T13:21:39;21.61;79.98
18361;SHT31;9308;48.550;9.108;2022-08-19T13:24:05;21.55;79.99
18361;SHT31;9308;48.550;9.108;2022-08-19T13:26:30;21.61;80.08
18361;SHT31;9308;48.550;9.108;2022-08-19T13:28:56;21.58;80.18
18361;SHT31;9308;48.550;9.108;2022-08-19T13:31:41;21.67;80.04
18361;SHT31;9308;48.550;9.108;2022-08-19T13:34:30;21.49;80.40
18361;SHT31;9308;48.550;9.108;2022-08-19T13:36:56;21.58;79.99
18361;SHT31;9308;48.550;9.108;2022-08-19T13:39:21;21.50;79.90
18361;SHT31;9308;48.550;9.108;2022-08-19T13:41:48;21.37;80.56
18361;SHT31;9308;48.550;9.108;2022-08-19T13:44:17;21.33;80.72
18361;SHT31;9308;48.550;9.108;2022-08-19T13:46:47;21.29;80.59
18361;SHT31;9308;48.550;9.108;2022-08-19T13:49:14;21.32;80.63
18361;SHT31;9308;48.550;9.108;2022-08-19T13:51:42;21.34;80.32
18361;SHT31;9308;48.550;9.108;2022-08-19T13:54:09;21.51;79.64
18361;SHT31;9308;48.550;9.108;2022-08-19T13:56:39;21.68;78.40
18361;SHT31;9308;48.550;9.108;2022-08-19T13:59:05;21.57;78.82
18361;SHT31;9308;48.550;9.108;2022-08-19T14:01:31;21.33;79.81
18361;SHT31;9308;48.550;9.108;2022-08-19T14:03:56;21.53;79.27
18361;SHT31;9308;48.550;9.108;2022-08-19T14:06:22;21.43;79.70
18361;SHT31;9308;48.550;9.108;2022-08-19T14:08:48;21.34;80.29
18361;SHT31;9308;48.550;9.108;2022-08-19T14:11:14;21.23;80.44
18361;SHT31;9308;48.550;9.108;2022-08-19T14:13:40;21.23;79.88
18361;SHT31;9308;48.550;9.108;2022-08-19T14:16:09;21.37;79.24
18361;SHT31;9308;48.550;9.108;2022-08-19T14:18:35;21.16;80.10
18361;SHT31;9308;48.550;9.108;2022-08-19T14:21:01;21.05;79.78
18361;SHT31;9308;48.550;9.108;2022-08-19T14:23:28;21.13;79.52
18361;SHT31;9308;48.550;9.108;2022-08-19T14:26:03;21.32;78.81
18361;SHT31;9308;48.550;9.108;2022-08-19T14:28:28;21.16;80.21
18361;SHT31;9308;48.550;9.108;2022-08-19T14:30:55;21.17;79.78
18361;SHT31;9308;48.550;9.108;2022-08-19T14:33:20;21.09;80.21
18361;SHT31;9308;48.550;9.108;2022-08-19T14:35:46;21.02;81.20
18361;SHT31;9308;48.550;9.108;2022-08-19T14:38:16;21.12;80.78
18361;SHT31;9308;48.550;9.108;2022-08-19T14:40:42;21.32;78.97
18361;SHT31;9308;48.550;9.108;2022-08-19T14:43:08;21.13;79.96
18361;SHT31;9308;48.550;9.108;2022-08-19T14:45:37;21.00;80.17
18361;SHT31;9308;48.550;9.108;2022-08-19T14:48:04;21.10;79.54
18361;SHT31;9308;48.550;9.108;2022-08-19T14:50:30;20.88;79.85
18361;SHT31;9308;48.550;9.108;2022-08-19T14:53:05;21.10;80.36
18361;SHT31;9308;48.550;9.108;2022-08-19T14:55:32;21.22;79.89
18361;SHT31;9308;48.550;9.108;2022-08-19T14:57:58;21.54;78.81
18361;SHT31;9308;48.550;9.108;2022-08-19T15:00:24;21.75;78.22
18361;SHT31;9308;48.550;9.108;2022-08-19T15:02:50;21.95;76.95
18361;SHT31;9308;48.550;9.108;2022-08-19T15:05:16;21.82;77.90
18361;SHT31;9308;48.550;9.108;2022-08-19T15:07:43;21.58;79.34
18361;SHT31;9308;48.550;9.108;2022-08-19T15:10:12;21.54;79.59
18361;SHT31;9308;48.550;9.108;2022-08-19T15:12:39;21.71;78.86
18361;SHT31;9308;48.550;9.108;2022-08-19T15:15:13;21.85;78.53
18361;SHT31;9308;48.550;9.108;2022-08-19T15:17:41;21.78;79.39
18361;SHT31;9308;48.550;9.108;2022-08-19T15:20:07;21.64;78.97
18361;SHT31;9308;48.550;9.108;2022-08-19T15:22:33;21.81;79.44
18361;SHT31;9308;48.550;9.108;2022-08-19T15:25:01;21.87;79.19
18361;SHT31;9308;48.550;9.108;2022-08-19T15:27:26;21.94;79.46
18361;SHT31;9308;48.550;9.108;2022-08-19T15:29:52;22.02;79.17
18361;SHT31;9308;48.550;9.108;2022-08-19T15:32:17;22.02;79.57
18361;SHT31;9308;48.550;9.108;2022-08-19T15:34:44;22.10;76.91
18361;SHT31;9308;48.550;9.108;2022-08-19T15:37:09;21.91;78.66
18361;SHT31;9308;48.550;9.108;2022-08-19T15:39:35;21.97;78.66
18361;SHT31;9308;48.550;9.108;2022-08-19T15:42:00;22.02;77.15
18361;SHT31;9308;48.550;9.108;2022-08-19T15:44:26;21.87;78.22
18361;SHT31;9308;48.550;9.108;2022-08-19T15:46:52;21.82;78.71
18361;SHT31;9308;48.550;9.108;2022-08-19T15:49:18;21.95;79.08
18361;SHT31;9308;48.550;9.108;2022-08-19T15:51:46;21.85;79.49
18361;SHT31;9308;48.550;9.108;2022-08-19T15:54:17;22.06;78.47
18361;SHT31;9308;48.550;9.108;2022-08-19T15:56:46;22.20;78.42
18361;SHT31;9308;48.550;9.108;2022-08-19T15:59:32;22.32;78.87